Time;durP1;ratioP1;P1;durP2;ratioP2;P2;SDS_P1;SDS_P2;PMS_P1;PMS_P2;Temp;Humidity;BMP_temperature;BMP_pressure;BME280_temperature;BME280_humidity;BME280_pressure;Samples;Min_cycle;Max_cycle;Signal;HPM_P1;HPM_P2
2022/10/27 00:01:21;;;;;;;1.97;1.87;;;12.00;97.30;;;;;;5026354;28;20234;-82
2022/10/27 00:03:51;;;;;;;2.40;1.77;;;12.10;97.30;;;;;;5033216;28;20184;-82
2022/10/27 00:06:16;;;;;;;3.93;1.80;;;12.10;97.30;;;;;;5032445;28;20208;-82
2022/10/27 00:08:42;;;;;;;3.27;2.53;;;12.10;97.30;;;;;;5041430;28;20489;-82
2022/10/27 00:11:07;;;;;;;2.40;2.23;;;12.10;97.30;;;;;;5043432;28;20204;-81
2022/10/27 00:13:34;;;;;;;2.40;2.03;;;12.10;97.30;;;;;;5033003;28;20180;-81
2022/10/27 00:16:05;;;;;;;2.87;2.03;;;12.10;97.30;;;;;;5030346;28;20295;-83
2022/10/27 00:18:31;;;;;;;3.10;2.40;;;12.20;97.30;;;;;;5034671;28;20858;-82
2022/10/27 00:21:06;;;;;;;8.00;2.73;;;12.20;97.30;;;;;;5029270;28;20430;-83
2022/10/27 00:23:32;;;;;;;2.57;2.37;;;12.20;97.30;;;;;;5031077;28;20418;-82
2022/10/27 00:25:58;;;;;;;1.73;1.63;;;12.20;97.30;;;;;;5015930;28;20585;-82
2022/10/27 00:28:25;;;;;;;2.47;2.27;;;12.20;97.30;;;;;;5033215;28;20419;-82
2022/10/27 00:31:03;;;;;;;6.30;4.13;;;12.10;97.30;;;;;;5024251;28;20824;-82
2022/10/27 00:33:29;;;;;;;1.67;1.27;;;12.10;97.30;;;;;;5035530;28;21113;-83
2022/10/27 00:35:55;;;;;;;2.43;2.23;;;12.00;97.30;;;;;;5022373;28;21139;-82
2022/10/27 00:38:21;;;;;;;2.37;2.17;;;12.00;97.30;;;;;;5015614;28;20419;-82
2022/10/27 00:40:47;;;;;;;3.10;2.10;;;11.90;97.30;;;;;;5009766;28;20670;-83
2022/10/27 00:43:34;;;;;;;1.53;1.50;;;11.80;97.30;;;;;;5023750;28;20430;-82
2022/10/27 00:46:16;;;;;;;4.20;3.13;;;11.80;97.30;;;;;;5005703;28;20200;-82
2022/10/27 00:48:42;;;;;;;2.90;2.20;;;11.80;97.30;;;;;;5013503;28;20415;-82
2022/10/27 00:51:10;;;;;;;3.63;3.43;;;11.70;97.30;;;;;;5002468;28;20459;-82
2022/10/27 00:53:36;;;;;;;2.93;2.53;;;11.70;97.30;;;;;;4998693;28;20184;-82
2022/10/27 00:56:02;;;;;;;2.50;2.30;;;11.60;97.30;;;;;;5012540;28;20444;-82
2022/10/27 00:58:28;;;;;;;3.17;2.97;;;11.60;97.30;;;;;;5012318;28;20183;-82
2022/10/27 01:00:54;;;;;;;3.23;2.50;;;11.50;97.30;;;;;;5001630;28;20177;-82
2022/10/27 01:03:22;;;;;;;12.40;2.20;;;11.50;97.30;;;;;;5010600;28;20411;-82
2022/10/27 01:05:50;;;;;;;5.13;3.57;;;11.40;97.30;;;;;;5011671;28;20454;-82
2022/10/27 01:08:16;;;;;;;3.03;2.27;;;11.40;97.30;;;;;;5012570;28;20518;-82
2022/10/27 01:10:42;;;;;;;2.83;2.70;;;11.40;97.30;;;;;;5018995;28;20773;-82
2022/10/27 01:13:08;;;;;;;3.30;3.13;;;11.40;97.30;;;;;;5011826;28;20419;-82
2022/10/27 01:16:00;;;;;;;5.80;2.20;;;11.40;97.30;;;;;;5008463;28;20280;-82
2022/10/27 01:19:03;;;;;;;3.10;2.20;;;11.30;97.30;;;;;;5012231;28;20435;-82
2022/10/27 01:22:05;;;;;;;6.53;3.03;;;11.20;97.30;;;;;;5006493;28;20420;-82
2022/10/27 01:24:40;;;;;;;5.03;3.03;;;11.10;97.30;;;;;;5024540;28;20430;-82
2022/10/27 01:27:34;;;;;;;2.30;2.10;;;11.10;97.30;;;;;;4993875;28;20455;-82
2022/10/27 01:30:23;;;;;;;2.20;2.00;;;11.10;97.30;;;;;;4993742;28;20470;-82
2022/10/27 01:33:09;;;;;;;1.90;1.50;;;11.10;97.30;;;;;;5002163;28;20425;-82
2022/10/27 01:35:47;;;;;;;4.50;2.90;;;11.00;97.30;;;;;;5011599;28;20482;-82
2022/10/27 01:38:31;;;;;;;2.40;2.00;;;11.00;97.30;;;;;;5011696;28;20800;-82
2022/10/27 01:41:09;;;;;;;3.90;3.30;;;10.90;97.30;;;;;;5028972;28;20799;-82
2022/10/27 01:43:35;;;;;;;2.70;2.50;;;10.90;97.30;;;;;;5030052;28;20426;-82
2022/10/27 01:46:03;;;;;;;2.90;2.23;;;10.80;97.30;;;;;;5004821;28;20451;-82
2022/10/27 01:48:32;;;;;;;3.67;2.60;;;10.80;97.30;;;;;;5025617;28;20431;-82
2022/10/27 01:50:58;;;;;;;2.07;1.93;;;10.80;97.30;;;;;;5003679;28;20462;-82
2022/10/27 01:53:23;;;;;;;1.93;1.80;;;10.80;97.30;;;;;;4995329;28;20429;-82
2022/10/27 01:56:04;;;;;;;4.20;2.17;;;10.70;97.30;;;;;;5021382;28;20207;-82
2022/10/27 01:58:48;;;;;;;5.07;2.10;;;10.70;97.30;;;;;;5027847;28;20182;-82
2022/10/27 02:01:38;;;;;;;1.40;1.30;;;10.70;97.30;;;;;;5012147;28;20509;-82
2022/10/27 02:04:07;;;;;;;2.00;1.80;;;10.60;97.30;;;;;;5020799;28;20453;-82
2022/10/27 02:06:36;;;;;;;2.03;1.93;;;10.60;97.30;;;;;;5012384;28;20485;-82
2022/10/27 02:09:21;;;;;;;1.73;1.63;;;10.50;97.30;;;;;;5030064;28;20515;-82
2022/10/27 02:11:51;;;;;;;7.50;4.07;;;10.50;97.30;;;;;;5028899;28;20455;-82
2022/10/27 02:14:19;;;;;;;6.83;3.00;;;10.50;97.30;;;;;;5010983;28;20424;-82
2022/10/27 02:16:48;;;;;;;2.83;1.70;;;10.50;97.30;;;;;;5017800;28;20450;-82
2022/10/27 02:19:31;;;;;;;4.20;2.70;;;10.50;97.30;;;;;;5012090;28;20458;-82
2022/10/27 02:22:00;;;;;;;3.60;2.50;;;10.40;97.30;;;;;;5029516;28;20423;-82
2022/10/27 02:24:26;;;;;;;3.80;2.50;;;10.40;97.30;;;;;;4996498;28;20418;-82
2022/10/27 02:27:13;;;;;;;3.17;2.50;;;10.40;97.30;;;;;;5011869;28;20431;-82
2022/10/27 02:29:48;;;;;;;2.83;2.63;;;10.40;97.30;;;;;;5003231;28;20506;-82
2022/10/27 02:32:17;;;;;;;5.63;2.17;;;10.30;97.30;;;;;;5029094;28;20457;-82
2022/10/27 02:34:44;;;;;;;2.60;1.70;;;10.30;97.30;;;;;;5010985;28;20836;-82
2022/10/27 02:37:18;;;;;;;2.80;2.60;;;10.30;97.30;;;;;;5026381;28;21071;-82
2022/10/27 02:39:44;;;;;;;1.60;1.60;;;10.30;97.30;;;;;;5029718;28;20510;-82
2022/10/27 02:42:09;;;;;;;2.00;1.90;;;10.20;97.30;;;;;;5017902;28;20493;-83
2022/10/27 02:44:35;;;;;;;5.80;2.10;;;10.20;97.30;;;;;;5038859;28;20279;-83
2022/10/27 02:47:00;;;;;;;3.40;1.97;;;10.10;97.30;;;;;;5029337;28;20200;-82
2022/10/27 02:49:26;;;;;;;2.07;1.93;;;10.10;97.30;;;;;;5039519;28;20194;-82
2022/10/27 02:51:51;;;;;;;2.30;2.10;;;10.00;97.30;;;;;;5031713;28;20211;-82
2022/10/27 02:54:17;;;;;;;2.73;1.60;;;10.00;97.30;;;;;;5025525;28;20655;-82
2022/10/27 02:56:42;;;;;;;3.70;3.13;;;10.00;97.30;;;;;;5032091;28;20928;-82
2022/10/27 02:59:08;;;;;;;4.20;3.17;;;10.00;97.30;;;;;;5031890;28;20191;-82
2022/10/27 03:01:33;;;;;;;4.53;1.90;;;10.00;97.30;;;;;;5031059;28;20181;-82
2022/10/27 03:03:59;;;;;;;2.80;2.60;;;9.90;97.30;;;;;;5034449;28;20207;-82
2022/10/27 03:06:24;;;;;;;1.57;1.53;;;9.90;97.30;;;;;;5034155;28;20199;-82
2022/10/27 03:08:50;;;;;;;3.30;3.10;;;9.90;97.30;;;;;;5042361;28;20651;-82
2022/10/27 03:11:15;;;;;;;8.00;3.63;;;9.90;97.30;;;;;;5016121;28;20204;-82
2022/10/27 03:13:41;;;;;;;2.23;2.03;;;9.90;97.30;;;;;;5035000;28;20194;-81
2022/10/27 03:16:06;;;;;;;3.60;2.13;;;9.90;97.30;;;;;;5016235;28;20843;-82
2022/10/27 03:18:32;;;;;;;2.50;1.83;;;9.90;97.30;;;;;;5052713;28;20279;-82
2022/10/27 03:20:57;;;;;;;2.60;2.33;;;9.90;97.30;;;;;;5030693;28;20189;-81
2022/10/27 03:23:23;;;;;;;4.40;2.10;;;9.80;97.30;;;;;;5026610;28;20259;-82
2022/10/27 03:25:48;;;;;;;1.53;1.43;;;9.80;97.30;;;;;;5032253;28;20205;-82
2022/10/27 03:28:14;;;;;;;3.80;2.13;;;9.70;97.30;;;;;;5031324;28;20180;-82
2022/10/27 03:30:40;;;;;;;2.03;1.60;;;9.70;97.30;;;;;;5018997;28;20203;-82
2022/10/27 03:33:05;;;;;;;1.80;1.40;;;9.70;97.30;;;;;;5034180;28;20226;-82
2022/10/27 03:35:31;;;;;;;3.10;2.90;;;9.70;97.30;;;;;;5019098;28;20559;-82
2022/10/27 03:37:58;;;;;;;2.83;2.00;;;9.60;97.30;;;;;;5084625;22;20627;-85
2022/10/27 03:40:24;;;;;;;2.87;1.97;;;9.60;97.30;;;;;;5050527;28;20186;-86
2022/10/27 03:42:50;;;;;;;3.93;2.77;;;9.60;97.30;;;;;;5041107;28;20467;-87
2022/10/27 03:45:16;;;;;;;1.93;1.83;;;9.60;97.30;;;;;;5044730;28;20406;-87
2022/10/27 03:47:41;;;;;;;3.10;1.90;;;9.60;97.30;;;;;;5036916;28;20227;-87
2022/10/27 03:50:07;;;;;;;1.40;1.30;;;9.50;97.30;;;;;;5034498;28;20258;-87
2022/10/27 03:52:33;;;;;;;2.30;2.10;;;9.50;97.30;;;;;;5043646;28;20294;-87
2022/10/27 03:54:58;;;;;;;2.47;2.23;;;9.50;97.30;;;;;;5024058;28;20540;-86
2022/10/27 03:57:24;;;;;;;11.03;3.87;;;9.50;97.30;;;;;;5016781;28;20335;-86
2022/10/27 03:59:49;;;;;;;2.10;1.70;;;9.50;97.30;;;;;;5031891;28;20179;-86
2022/10/27 04:02:16;;;;;;;5.60;2.63;;;9.50;97.30;;;;;;5031275;28;20168;-87
2022/10/27 04:04:42;;;;;;;3.63;2.50;;;9.40;97.30;;;;;;5030698;28;20831;-87
2022/10/27 04:07:08;;;;;;;5.10;2.73;;;9.50;97.30;;;;;;5031091;28;20571;-88
2022/10/27 04:09:33;;;;;;;2.40;2.30;;;9.40;97.30;;;;;;5031534;28;20188;-86
2022/10/27 04:11:59;;;;;;;2.27;2.07;;;9.40;97.30;;;;;;5023514;28;20296;-87
2022/10/27 04:14:24;;;;;;;2.40;2.03;;;9.30;97.30;;;;;;5037725;28;20255;-84
2022/10/27 04:16:50;;;;;;;4.93;3.90;;;9.30;97.30;;;;;;5025496;28;20200;-86
2022/10/27 04:19:20;;;;;;;2.10;1.47;;;9.30;97.30;;;;;;5039877;28;20176;-90
2022/10/27 04:21:46;;;;;;;2.30;2.00;;;9.20;97.30;;;;;;5054553;28;20177;-88
2022/10/27 04:24:12;;;;;;;3.40;2.80;;;9.20;97.30;;;;;;5045355;28;20438;-90
2022/10/27 04:26:38;;;;;;;6.43;2.30;;;9.20;97.30;;;;;;5054666;28;20435;-87
2022/10/27 04:29:04;;;;;;;2.97;2.77;;;9.20;97.30;;;;;;5058251;28;20459;-91
2022/10/27 04:31:29;;;;;;;1.90;1.80;;;9.20;97.30;;;;;;5010660;28;20448;-86
2022/10/27 04:33:55;;;;;;;2.10;1.87;;;9.20;97.30;;;;;;5021734;28;20180;-87
2022/10/27 04:36:20;;;;;;;1.80;1.70;;;9.10;97.30;;;;;;5023107;28;20195;-87
2022/10/27 04:38:49;;;;;;;3.47;1.93;;;9.10;97.30;;;;;;5058856;28;20183;-91
2022/10/27 04:41:15;;;;;;;2.97;2.77;;;9.10;97.30;;;;;;5057326;28;20173;-91
2022/10/27 04:43:40;;;;;;;1.40;1.30;;;9.00;97.30;;;;;;5050530;28;20445;-87
2022/10/27 04:46:06;;;;;;;2.40;2.20;;;9.00;97.30;;;;;;5014081;28;20263;-88
2022/10/27 04:48:32;;;;;;;1.23;1.13;;;9.00;97.30;;;;;;5031923;28;20195;-86
2022/10/27 04:50:57;;;;;;;1.90;1.80;;;9.00;97.30;;;;;;5013414;28;20705;-86
2022/10/27 04:53:23;;;;;;;3.90;1.90;;;8.90;97.30;;;;;;5023707;28;20183;-86
2022/10/27 04:55:51;;;;;;;2.47;2.30;;;8.90;97.30;;;;;;5027010;28;20453;-86
2022/10/27 04:58:16;;;;;;;2.20;1.67;;;8.90;97.30;;;;;;5027569;28;20195;-86
2022/10/27 05:00:42;;;;;;;2.90;1.60;;;8.90;97.30;;;;;;5033299;28;20426;-85
2022/10/27 05:03:08;;;;;;;2.50;2.37;;;8.90;97.30;;;;;;5032892;28;20410;-85
2022/10/27 05:05:34;;;;;;;2.33;1.40;;;8.80;97.30;;;;;;5030053;28;20177;-87
2022/10/27 05:08:01;;;;;;;1.87;1.77;;;8.80;97.30;;;;;;5033101;28;20527;-87
2022/10/27 05:10:28;;;;;;;2.00;1.90;;;8.80;97.30;;;;;;5028384;28;20186;-84
2022/10/27 05:12:54;;;;;;;2.50;2.30;;;8.80;97.30;;;;;;5039191;28;20414;-86
2022/10/27 05:15:19;;;;;;;4.50;2.57;;;8.80;97.30;;;;;;5029980;28;20922;-86
2022/10/27 05:17:45;;;;;;;1.47;1.20;;;8.80;97.30;;;;;;5028126;28;20210;-87
2022/10/27 05:20:11;;;;;;;1.80;1.70;;;8.80;97.30;;;;;;5033413;28;20180;-87
2022/10/27 05:22:38;;;;;;;1.67;1.40;;;8.80;97.30;;;;;;5031001;28;20198;-87
2022/10/27 05:25:05;;;;;;;1.80;1.40;;;8.80;97.30;;;;;;5020234;28;20433;-87
2022/10/27 05:27:31;;;;;;;4.70;1.90;;;8.80;97.30;;;;;;5025214;28;20442;-86
2022/10/27 05:29:57;;;;;;;4.90;3.03;;;8.70;97.30;;;;;;5034356;28;20820;-87
2022/10/27 05:32:22;;;;;;;1.60;1.50;;;8.70;97.30;;;;;;5042370;28;20466;-87
2022/10/27 05:34:48;;;;;;;2.90;2.73;;;8.80;97.30;;;;;;5029494;28;20458;-85
2022/10/27 05:37:14;;;;;;;2.47;2.03;;;8.80;97.30;;;;;;5021527;28;20234;-86
2022/10/27 05:39:39;;;;;;;3.00;1.93;;;8.80;97.30;;;;;;5036948;28;20185;-87
2022/10/27 05:42:05;;;;;;;2.17;2.00;;;8.80;97.30;;;;;;5035692;28;20208;-87
2022/10/27 05:44:30;;;;;;;2.80;2.60;;;8.80;97.30;;;;;;5031827;28;20197;-84
2022/10/27 05:46:56;;;;;;;1.70;1.60;;;8.70;97.30;;;;;;5050294;28;20265;-86
2022/10/27 05:49:21;;;;;;;2.50;1.70;;;8.70;97.30;;;;;;5032182;28;20199;-87
2022/10/27 05:51:50;;;;;;;8.10;3.60;;;8.70;97.30;;;;;;5022962;28;20212;-87
2022/10/27 05:54:16;;;;;;;3.53;2.20;;;8.70;97.30;;;;;;5013258;28;20183;-86
2022/10/27 05:56:42;;;;;;;2.47;2.27;;;8.70;97.30;;;;;;5029142;28;20439;-86
2022/10/27 05:59:09;;;;;;;2.87;2.37;;;8.70;97.30;;;;;;5014705;28;20476;-87
2022/10/27 06:01:35;;;;;;;2.57;1.90;;;8.70;97.30;;;;;;5022613;28;20227;-85
2022/10/27 06:04:01;;;;;;;4.90;2.03;;;8.70;97.30;;;;;;5014098;28;20450;-86
2022/10/27 06:06:27;;;;;;;2.60;2.20;;;8.70;97.30;;;;;;5031666;28;20723;-86
2022/10/27 06:08:52;;;;;;;10.30;3.27;;;8.60;97.30;;;;;;5031880;28;20453;-85
2022/10/27 06:11:18;;;;;;;2.47;2.27;;;8.60;97.30;;;;;;5014061;28;20624;-86
2022/10/27 06:13:43;;;;;;;2.40;2.20;;;8.60;97.30;;;;;;5014464;28;20774;-85
2022/10/27 06:16:09;;;;;;;6.10;3.00;;;8.60;97.30;;;;;;5014084;28;20188;-85
2022/10/27 06:18:34;;;;;;;2.00;1.90;;;8.70;97.30;;;;;;5007827;28;20184;-85
2022/10/27 06:21:00;;;;;;;6.00;2.93;;;8.60;97.30;;;;;;5010898;28;20195;-86
2022/10/27 06:23:26;;;;;;;1.77;1.67;;;8.70;97.30;;;;;;5007684;28;20185;-86
2022/10/27 06:25:54;;;;;;;6.13;4.43;;;8.60;97.30;;;;;;5010787;28;20267;-85
2022/10/27 06:28:21;;;;;;;2.07;1.40;;;8.60;97.30;;;;;;5010953;28;20435;-85
2022/10/27 06:30:46;;;;;;;3.27;2.20;;;8.70;97.30;;;;;;5010799;28;20455;-85
2022/10/27 06:33:12;;;;;;;4.00;2.70;;;8.70;97.30;;;;;;5020921;28;20515;-86
2022/10/27 06:35:38;;;;;;;4.33;3.03;;;8.80;97.30;;;;;;5015856;28;20177;-85
2022/10/27 06:38:03;;;;;;;2.07;1.90;;;8.80;97.30;;;;;;5024282;28;20236;-85
2022/10/27 06:40:29;;;;;;;59.03;3.30;;;8.90;97.30;;;;;;5014465;28;20180;-86
2022/10/27 06:42:54;;;;;;;2.20;1.63;;;9.00;97.30;;;;;;5012102;28;20177;-86
2022/10/27 06:45:20;;;;;;;2.03;1.90;;;9.00;97.30;;;;;;5011650;28;20598;-86
2022/10/27 06:47:54;;;;;;;2.43;2.27;;;9.10;97.30;;;;;;5015557;28;20200;-86
2022/10/27 06:50:19;;;;;;;5.43;2.50;;;9.20;97.30;;;;;;5008240;28;20203;-85
2022/10/27 06:52:44;;;;;;;2.77;2.57;;;9.30;97.30;;;;;;5014547;28;20415;-86
2022/10/27 06:55:10;;;;;;;3.50;2.10;;;9.30;97.30;;;;;;5014129;28;20394;-86
2022/10/27 06:57:42;;;;;;;2.90;2.63;;;9.40;97.30;;;;;;5020528;28;20195;-86
2022/10/27 07:00:09;;;;;;;3.63;2.83;;;9.40;97.30;;;;;;5021909;28;20263;-88
2022/10/27 07:02:36;;;;;;;2.43;2.13;;;9.40;97.30;;;;;;5028586;28;20465;-86
2022/10/27 07:05:02;;;;;;;2.80;2.40;;;9.50;97.30;;;;;;5004543;28;20462;-86
2022/10/27 07:07:28;;;;;;;4.93;2.67;;;9.60;97.30;;;;;;5009242;28;20440;-87
2022/10/27 07:09:53;;;;;;;6.57;4.53;;;9.60;97.30;;;;;;5022031;28;20449;-86
2022/10/27 07:12:19;;;;;;;4.10;2.10;;;9.70;97.30;;;;;;5012630;28;20588;-87
2022/10/27 07:14:44;;;;;;;2.60;2.40;;;9.80;97.30;;;;;;5020415;28;20181;-86
2022/10/27 07:17:10;;;;;;;2.40;2.10;;;9.90;97.30;;;;;;4999583;28;20234;-86
2022/10/27 07:19:35;;;;;;;5.50;2.77;;;10.00;97.30;;;;;;5000417;28;20488;-87
2022/10/27 07:22:01;;;;;;;3.87;2.50;;;10.10;97.30;;;;;;5009748;28;20181;-87
2022/10/27 07:24:26;;;;;;;5.57;2.90;;;10.30;97.30;;;;;;5011326;28;20189;-87
2022/10/27 07:26:54;;;;;;;4.40;2.33;;;10.40;97.30;;;;;;5020478;28;20215;-86
2022/10/27 07:29:20;;;;;;;2.07;1.93;;;10.60;97.30;;;;;;5008315;28;20271;-86
2022/10/27 07:31:46;;;;;;;4.53;3.40;;;10.80;97.30;;;;;;5005516;28;20917;-87
2022/10/27 07:34:15;;;;;;;7.40;3.50;;;10.90;97.30;;;;;;4998300;28;20427;-88
2022/10/27 07:36:40;;;;;;;4.10;2.90;;;11.10;97.30;;;;;;5007482;28;21071;-87
2022/10/27 07:39:06;;;;;;;1.90;1.80;;;11.20;97.30;;;;;;4998631;28;20479;-87
2022/10/27 07:41:32;;;;;;;7.67;4.40;;;11.50;97.30;;;;;;5032636;28;20186;-88
2022/10/27 07:43:57;;;;;;;5.33;3.90;;;11.60;97.30;;;;;;5028732;28;20191;-87
2022/10/27 07:46:23;;;;;;;5.80;3.73;;;11.80;97.30;;;;;;5036377;28;20444;-85
2022/10/27 07:48:49;;;;;;;4.10;3.10;;;11.90;97.30;;;;;;5021071;28;20394;-89
2022/10/27 07:51:14;;;;;;;3.90;3.43;;;12.10;97.30;;;;;;5023287;28;20201;-87
2022/10/27 07:53:40;;;;;;;2.70;2.50;;;12.20;97.30;;;;;;5028168;28;20634;-87
2022/10/27 07:56:05;;;;;;;11.13;3.33;;;12.30;97.30;;;;;;5032974;28;20643;-88
2022/10/27 07:58:31;;;;;;;4.67;3.23;;;12.50;97.30;;;;;;5019906;28;20180;-87
2022/10/27 08:00:58;;;;;;;6.20;2.60;;;12.60;97.30;;;;;;5023273;28;20180;-87
2022/10/27 08:03:28;;;;;;;9.10;5.03;;;12.70;97.30;;;;;;5041061;28;20199;-90
2022/10/27 08:05:54;;;;;;;2.43;2.23;;;12.80;97.30;;;;;;5024838;28;20431;-89
2022/10/27 08:08:20;;;;;;;9.87;3.47;;;12.90;97.30;;;;;;5028044;28;20462;-88
2022/10/27 08:10:48;;;;;;;2.93;1.83;;;13.10;97.30;;;;;;5014904;28;20886;-88
2022/10/27 08:13:15;;;;;;;5.07;4.77;;;13.20;97.30;;;;;;5015105;28;20420;-88
2022/10/27 08:15:41;;;;;;;4.03;2.93;;;13.30;97.30;;;;;;5012290;28;20441;-88
2022/10/27 08:18:08;;;;;;;4.20;2.80;;;13.40;97.30;;;;;;5034172;28;20431;-87
2022/10/27 08:20:38;;;;;;;9.30;4.07;;;13.50;97.30;;;;;;5009692;28;20422;-88
2022/10/27 08:23:06;;;;;;;3.47;3.27;;;13.70;97.30;;;;;;5019484;28;20414;-87
2022/10/27 08:25:32;;;;;;;3.20;3.00;;;13.80;97.30;;;;;;5017534;28;20461;-87
2022/10/27 08:27:58;;;;;;;4.17;2.83;;;13.90;97.30;;;;;;5031126;28;20428;-87
2022/10/27 08:30:26;;;;;;;2.63;2.03;;;14.00;97.30;;;;;;5030702;28;20418;-87
2022/10/27 08:32:56;;;;;;;3.40;2.73;;;14.10;97.30;;;;;;5031013;28;20419;-87
2022/10/27 08:35:22;;;;;;;2.20;2.00;;;14.20;97.30;;;;;;5033814;28;20468;-88
2022/10/27 08:37:48;;;;;;;8.80;4.40;;;14.30;97.30;;;;;;5034185;28;20470;-88
2022/10/27 08:40:13;;;;;;;3.43;2.37;;;14.40;97.30;;;;;;5028470;28;20450;-90
2022/10/27 08:43:19;;;;;;;7.40;2.23;;;14.50;97.30;;;;;;5031006;28;20271;-88
2022/10/27 08:46:01;;;;;;;3.27;2.80;;;14.60;97.30;;;;;;4967512;28;20561;-88
2022/10/27 08:48:28;;;;;;;3.50;1.73;;;14.80;97.30;;;;;;5045103;28;20433;-93
2022/10/27 08:50:54;;;;;;;3.73;3.53;;;14.90;97.30;;;;;;5050119;28;20466;-91
2022/10/27 08:53:29;;;;;;;3.97;2.30;;;15.00;97.30;;;;;;5055478;28;20430;-88
2022/10/27 08:56:15;;;;;;;4.83;3.20;;;15.10;97.30;;;;;;5012695;28;20187;-91
2022/10/27 08:58:47;;;;;;;4.13;2.83;;;15.30;97.30;;;;;;5017151;28;20438;-88
2022/10/27 09:01:29;;;;;;;3.57;2.07;;;15.40;97.30;;;;;;5023838;28;20538;-87
2022/10/27 09:04:18;;;;;;;4.30;3.13;;;15.50;97.30;;;;;;5021804;28;20727;-88
2022/10/27 09:06:57;;;;;;;3.07;2.77;;;15.60;97.30;;;;;;5031531;28;20442;-89
2022/10/27 09:09:53;;;;;;;14.50;4.27;;;15.80;97.30;;;;;;5044851;28;20459;-89
2022/10/27 09:12:25;;;;;;;3.13;2.93;;;15.90;97.30;;;;;;5013640;28;20463;-88
2022/10/27 09:15:16;;;;;;;3.33;2.00;;;16.00;97.30;;;;;;5016781;28;20466;-88
2022/10/27 09:17:47;;;;;;;2.60;2.40;;;16.10;97.30;;;;;;5045102;28;20469;-88
2022/10/27 09:20:37;;;;;;;3.43;3.10;;;16.30;97.30;;;;;;5019747;28;20505;-86
2022/10/27 09:23:09;;;;;;;4.57;2.87;;;16.40;97.30;;;;;;5051347;28;20425;-87
2022/10/27 09:25:37;;;;;;;2.50;1.90;;;16.50;97.30;;;;;;5006977;28;20418;-87
2022/10/27 09:28:04;;;;;;;2.17;2.00;;;16.70;97.30;;;;;;5033018;28;20442;-87
2022/10/27 09:30:34;;;;;;;3.67;1.93;;;16.80;97.30;;;;;;5032735;28;20468;-87
2022/10/27 09:33:00;;;;;;;1.83;1.67;;;17.00;97.30;;;;;;5022760;28;20427;-86
2022/10/27 09:35:29;;;;;;;2.27;2.07;;;17.00;97.30;;;;;;5026588;28;20420;-87
2022/10/27 09:37:58;;;;;;;2.10;1.73;;;17.20;97.30;;;;;;5023863;28;20868;-88
2022/10/27 09:40:32;;;;;;;5.77;2.47;;;17.30;97.30;;;;;;5039583;22;20499;-83
2022/10/27 09:42:59;;;;;;;2.27;2.13;;;17.40;97.30;;;;;;4998261;28;20421;-82
2022/10/27 09:45:27;;;;;;;3.50;2.70;;;17.50;97.30;;;;;;5011349;28;20437;-82
2022/10/27 09:47:56;;;;;;;2.80;1.90;;;17.70;97.30;;;;;;5013252;28;20821;-83
2022/10/27 09:50:53;;;;;;;3.27;2.50;;;17.80;97.30;;;;;;5012331;28;20447;-82
2022/10/27 09:53:38;;;;;;;2.40;2.20;;;18.00;97.30;;;;;;5016426;28;20425;-82
2022/10/27 09:56:05;;;;;;;1.37;1.03;;;18.10;97.30;;;;;;5003099;28;20412;-83
2022/10/27 09:58:39;;;;;;;1.33;1.20;;;18.20;97.30;;;;;;5013862;28;20419;-83
2022/10/27 10:01:05;;;;;;;1.80;1.70;;;18.30;97.30;;;;;;4992520;28;20455;-84
2022/10/27 10:03:31;;;;;;;2.70;1.83;;;18.50;97.30;;;;;;4984281;28;20853;-82
2022/10/27 10:06:24;;;;;;;3.53;1.90;;;18.60;97.30;;;;;;5001510;28;20514;-83
2022/10/27 10:08:50;;;;;;;1.73;1.63;;;18.80;97.30;;;;;;4993052;28;20570;-82
2022/10/27 10:11:21;;;;;;;2.00;1.47;;;18.90;97.30;;;;;;5009139;28;20447;-83
2022/10/27 10:13:58;;;;;;;1.93;1.37;;;19.00;97.30;;;;;;4992990;28;20181;-83
2022/10/27 10:16:27;;;;;;;7.20;1.93;;;19.10;97.30;;;;;;5002850;28;20445;-83
2022/10/27 10:19:14;;;;;;;1.57;1.47;;;19.20;97.30;;;;;;5008510;28;20412;-83
2022/10/27 10:21:46;;;;;;;1.10;1.00;;;19.40;97.30;;;;;;4997436;28;20432;-82
2022/10/27 10:24:38;;;;;;;1.60;1.50;;;19.40;97.30;;;;;;4988564;28;20977;-83
2022/10/27 10:27:05;;;;;;;1.73;1.63;;;19.50;97.30;;;;;;4992877;28;20431;-83
2022/10/27 10:29:46;;;;;;;3.67;1.83;;;19.50;97.30;;;;;;4993020;28;20554;-83
2022/10/27 10:32:13;;;;;;;4.23;1.33;;;19.60;97.30;;;;;;4980273;28;20939;-82
2022/10/27 10:34:41;;;;;;;1.67;1.57;;;19.60;97.30;;;;;;5022912;28;20411;-83
2022/10/27 10:37:27;;;;;;;2.40;1.90;;;19.70;97.30;;;;;;4985820;28;20428;-84
2022/10/27 10:39:53;;;;;;;3.07;1.30;;;19.70;97.30;;;;;;4986456;28;20531;-83
2022/10/27 10:42:18;;;;;;;5.83;1.80;;;19.80;97.30;;;;;;5011884;28;20852;-83
2022/10/27 10:44:44;;;;;;;5.33;2.20;;;19.80;97.30;;;;;;5025017;28;20657;-83
2022/10/27 10:47:26;;;;;;;2.37;2.00;;;19.80;97.30;;;;;;5018178;28;20181;-83
2022/10/27 10:50:01;;;;;;;1.40;1.30;;;19.90;97.30;;;;;;5020452;28;20489;-83
2022/10/27 10:52:36;;;;;;;2.80;1.93;;;19.90;97.30;;;;;;5004921;28;20447;-83
2022/10/27 10:55:07;;;;;;;1.87;1.67;;;20.00;97.30;;;;;;4999679;28;20415;-83
2022/10/27 10:57:37;;;;;;;1.20;1.17;;;20.10;97.30;;;;;;5011031;28;20510;-82
2022/10/27 11:00:05;;;;;;;1.23;1.13;;;20.20;97.30;;;;;;5012236;28;20796;-83
2022/10/27 11:02:33;;;;;;;4.37;1.43;;;20.30;97.30;;;;;;5029107;28;20426;-83
2022/10/27 11:05:12;;;;;;;1.30;1.20;;;20.30;97.30;;;;;;5030014;28;20557;-83
2022/10/27 11:07:39;;;;;;;1.47;1.40;;;20.30;97.30;;;;;;5011878;28;20423;-83
2022/10/27 11:10:30;;;;;;;3.13;1.87;;;20.40;97.30;;;;;;5012206;28;20450;-83
2022/10/27 11:13:05;;;;;;;1.40;1.30;;;20.50;97.30;;;;;;5019768;28;20802;-83
2022/10/27 11:15:47;;;;;;;6.23;1.87;;;20.60;97.30;;;;;;5014970;28;20441;-84
2022/10/27 11:18:23;;;;;;;1.43;1.17;;;20.60;96.80;;;;;;5012411;28;20420;-84
2022/10/27 11:20:55;;;;;;;1.23;1.17;;;20.60;96.40;;;;;;5020408;28;20968;-83
2022/10/27 11:23:28;;;;;;;2.20;1.77;;;20.70;96.30;;;;;;5016006;28;20452;-83
2022/10/27 11:25:57;;;;;;;3.00;1.67;;;20.70;96.90;;;;;;5035715;28;20458;-83
2022/10/27 11:28:30;;;;;;;1.67;1.57;;;20.70;96.60;;;;;;5036948;28;20407;-82
2022/10/27 11:31:06;;;;;;;1.20;1.10;;;20.80;96.90;;;;;;5015341;28;20485;-83
2022/10/27 11:33:45;;;;;;;3.23;2.23;;;20.80;96.50;;;;;;5011986;28;20419;-83
2022/10/27 11:36:43;;;;;;;1.80;1.70;;;20.90;95.90;;;;;;5039324;28;20592;-82
2022/10/27 11:39:17;;;;;;;1.90;1.80;;;21.00;96.30;;;;;;5017004;28;20425;-86
2022/10/27 11:41:59;;;;;;;1.40;1.30;;;21.20;97.00;;;;;;5020794;28;20434;-83
2022/10/27 11:44:46;;;;;;;6.87;1.80;;;21.20;96.00;;;;;;5015031;28;20415;-83
2022/10/27 11:47:15;;;;;;;2.50;1.67;;;21.30;96.00;;;;;;5033001;28;20473;-82
2022/10/27 11:49:56;;;;;;;2.10;1.63;;;21.40;96.40;;;;;;5028870;28;20530;-83
2022/10/27 11:52:43;;;;;;;5.00;2.50;;;21.50;96.30;;;;;;5032644;28;20742;-81
2022/10/27 11:55:13;;;;;;;0.90;0.80;;;21.60;96.20;;;;;;5021420;28;20406;-82
2022/10/27 11:58:13;;;;;;;2.30;1.47;;;21.60;95.90;;;;;;5018150;28;20756;-82
2022/10/27 12:00:51;;;;;;;1.23;1.13;;;21.60;95.10;;;;;;5015316;28;20886;-83
2022/10/27 12:03:45;;;;;;;1.53;1.50;;;21.70;94.90;;;;;;5004480;28;20415;-83
2022/10/27 12:06:48;;;;;;;1.43;1.33;;;21.80;94.10;;;;;;5033069;28;20498;-83
2022/10/27 12:09:53;;;;;;;1.30;1.10;;;21.90;94.50;;;;;;5032605;28;20427;-83
2022/10/27 12:12:23;;;;;;;2.00;1.50;;;22.00;94.20;;;;;;4916384;29;20474;-83
2022/10/27 12:14:59;;;;;;;1.57;1.50;;;22.20;93.80;;;;;;4999708;28;20505;-81
2022/10/27 12:17:47;;;;;;;1.53;1.50;;;22.30;93.60;;;;;;5031161;28;20423;-83
2022/10/27 12:20:18;;;;;;;3.57;2.67;;;22.40;93.00;;;;;;5000370;28;20474;-83
2022/10/27 12:23:02;;;;;;;3.17;1.83;;;22.50;93.00;;;;;;5014030;28;20427;-82
2022/10/27 12:25:33;;;;;;;2.30;2.10;;;22.70;93.20;;;;;;5026446;28;20428;-83
2022/10/27 12:28:04;;;;;;;1.60;1.50;;;22.90;93.00;;;;;;5013851;28;20407;-83
2022/10/27 12:30:31;;;;;;;1.70;1.60;;;23.00;92.70;;;;;;4998953;28;20490;-85
2022/10/27 12:33:14;;;;;;;2.00;1.90;;;23.10;91.80;;;;;;5024260;28;20441;-82
2022/10/27 12:35:42;;;;;;;1.63;1.53;;;23.10;91.90;;;;;;5002930;28;20426;-82
2022/10/27 12:38:30;;;;;;;3.27;1.60;;;23.10;91.60;;;;;;5013937;28;20434;-82
2022/10/27 12:41:08;;;;;;;2.10;1.27;;;23.10;91.40;;;;;;5020213;28;20506;-82
2022/10/27 12:43:55;;;;;;;1.40;1.30;;;23.10;91.90;;;;;;5007834;28;20426;-82
2022/10/27 12:46:51;;;;;;;1.20;1.10;;;23.20;91.60;;;;;;5007025;28;20423;-81
2022/10/27 12:49:35;;;;;;;4.57;1.77;;;23.30;91.80;;;;;;5019961;28;20439;-83
2022/10/27 12:52:12;;;;;;;3.17;1.40;;;23.50;91.00;;;;;;5025322;28;20459;-82
2022/10/27 12:54:46;;;;;;;3.13;1.70;;;23.70;90.50;;;;;;5027713;28;20435;-82
2022/10/27 12:57:17;;;;;;;1.80;1.33;;;23.80;89.60;;;;;;5031586;28;20910;-82
2022/10/27 12:59:58;;;;;;;1.23;1.20;;;23.90;89.30;;;;;;5013392;28;20427;-83
2022/10/27 13:02:32;;;;;;;9.40;2.30;;;23.80;89.50;;;;;;5031600;28;20427;-82
2022/10/27 13:05:23;;;;;;;1.67;1.33;;;23.70;90.20;;;;;;5010475;28;20420;-83
2022/10/27 13:08:15;;;;;;;1.80;1.37;;;23.80;90.30;;;;;;5025347;28;20475;-82
2022/10/27 13:10:40;;;;;;;1.27;1.20;;;23.90;89.90;;;;;;5013630;28;20804;-82